createdAt,value
2023-01-27T00:00:39.316Z,12.13
2023-01-27T00:03:06.408Z,11.95
2023-01-27T00:05:33.102Z,12.10
2023-01-27T00:07:59.730Z,13.25
2023-01-27T00:10:27.231Z,12.35
2023-01-27T00:13:12.724Z,12.75
2023-01-27T00:15:40.260Z,11.68
2023-01-27T00:18:07.073Z,12.88
2023-01-27T00:20:52.363Z,15.50
2023-01-27T00:23:40.518Z,13.73
2023-01-27T00:26:14.310Z,13.95
2023-01-27T00:28:42.269Z,13.70
2023-01-27T00:31:29.724Z,13.93
2023-01-27T00:34:01.904Z,13.35
2023-01-27T00:36:29.638Z,12.73
2023-01-27T00:38:57.088Z,12.32
2023-01-27T00:41:23.790Z,11.70
2023-01-27T00:43:53.157Z,12.93
2023-01-27T00:46:22.403Z,15.73
2023-01-27T00:48:49.571Z,13.55
2023-01-27T00:51:17.439Z,11.95
2023-01-27T00:53:44.946Z,13.38
2023-01-27T00:56:12.014Z,12.73
2023-01-27T00:58:39.013Z,14.02
2023-01-27T01:01:10.221Z,13.65
2023-01-27T01:03:37.291Z,14.45
2023-01-27T01:06:13.051Z,15.60
2023-01-27T01:08:40.263Z,13.85
2023-01-27T01:11:09.101Z,13.68
2023-01-27T01:13:35.755Z,14.50
2023-01-27T01:16:13.949Z,12.38
2023-01-27T01:18:41.144Z,15.10
2023-01-27T01:21:07.962Z,15.02
2023-01-27T01:23:38.914Z,12.93
2023-01-27T01:26:05.684Z,13.85
2023-01-27T01:28:32.644Z,14.90
2023-01-27T01:31:25.700Z,15.52
2023-01-27T01:33:52.353Z,17.00
2023-01-27T01:36:20.743Z,13.82
2023-01-27T01:38:48.399Z,14.88
2023-01-27T01:41:18.238Z,14.07
2023-01-27T01:43:45.060Z,14.30
2023-01-27T01:46:12.687Z,14.18
2023-01-27T01:48:53.268Z,14.20
2023-01-27T01:51:30.537Z,14.18
2023-01-27T01:54:16.410Z,14.52
2023-01-27T01:56:55.647Z,15.48
2023-01-27T01:59:33.427Z,14.20
2023-01-27T02:02:04.874Z,15.32
2023-01-27T02:04:46.967Z,16.33
2023-01-27T02:07:21.645Z,15.55
2023-01-27T02:09:48.694Z,15.02
2023-01-27T02:12:15.357Z,16.02
2023-01-27T02:14:42.249Z,14.32
2023-01-27T02:17:11.318Z,13.70
2023-01-27T02:19:45.066Z,15.82
2023-01-27T02:22:18.979Z,15.32
2023-01-27T02:24:49.731Z,14.32
2023-01-27T02:27:16.479Z,13.48
2023-01-27T02:29:43.086Z,14.55
2023-01-27T02:32:25.693Z,13.88
2023-01-27T02:34:55.526Z,13.55
2023-01-27T02:37:24.040Z,13.90
2023-01-27T02:39:52.143Z,14.13
2023-01-27T02:42:19.736Z,15.23
2023-01-27T02:44:46.328Z,12.98
2023-01-27T02:47:12.996Z,14.23
2023-01-27T02:49:39.637Z,13.98
2023-01-27T02:52:06.302Z,14.90
2023-01-27T02:54:32.913Z,13.02
2023-01-27T02:56:59.548Z,13.30
2023-01-27T02:59:26.190Z,14.68
2023-01-27T03:01:52.877Z,13.52
2023-01-27T03:04:19.468Z,14.63
2023-01-27T03:06:46.100Z,15.18
2023-01-27T03:09:12.799Z,14.23
2023-01-27T03:11:58.101Z,14.32
2023-01-27T03:14:43.603Z,12.75
2023-01-27T03:17:29.049Z,13.45
2023-01-27T03:19:55.665Z,14.63
2023-01-27T03:22:22.393Z,13.15
2023-01-27T03:24:49.042Z,16.38
2023-01-27T03:27:15.680Z,12.82
2023-01-27T03:29:57.907Z,13.65
2023-01-27T03:32:29.538Z,12.63
2023-01-27T03:35:00.492Z,13.25
2023-01-27T03:37:47.019Z,12.90
2023-01-27T03:40:33.247Z,11.90
2023-01-27T03:43:18.717Z,12.40
2023-01-27T03:46:07.111Z,12.73
2023-01-27T03:48:34.907Z,12.10
2023-01-27T03:51:03.369Z,12.93
2023-01-27T03:53:30.238Z,13.57
2023-01-27T03:55:56.986Z,11.65
2023-01-27T03:58:23.606Z,12.45
2023-01-27T04:00:52.772Z,13.73
2023-01-27T04:03:38.896Z,13.27
2023-01-27T04:06:25.893Z,12.45
2023-01-27T04:08:52.814Z,12.27
2023-01-27T04:11:38.108Z,12.23
2023-01-27T04:14:06.008Z,12.20
2023-01-27T04:16:34.401Z,12.50
2023-01-27T04:19:01.056Z,12.43
2023-01-27T04:21:27.709Z,12.23
2023-01-27T04:23:54.625Z,12.63
2023-01-27T04:26:22.222Z,13.25
2023-01-27T04:28:49.562Z,11.45
2023-01-27T04:31:17.073Z,12.70
2023-01-27T04:33:45.094Z,11.30
2023-01-27T04:36:12.922Z,10.73
2023-01-27T04:38:39.594Z,11.10
2023-01-27T04:41:06.189Z,13.82
2023-01-27T04:43:32.801Z,11.10
2023-01-27T04:45:59.465Z,12.25
2023-01-27T04:48:26.090Z,12.90
2023-01-27T04:50:52.710Z,11.30
2023-01-27T04:53:19.357Z,12.25
2023-01-27T04:55:48.911Z,10.60
2023-01-27T04:58:17.693Z,11.07
2023-01-27T05:00:45.461Z,12.05
2023-01-27T05:03:12.239Z,11.55
2023-01-27T05:05:39.128Z,13.88
2023-01-27T05:08:06.930Z,13.13
2023-01-27T05:10:33.856Z,10.90
2023-01-27T05:13:01.874Z,11.98
2023-01-27T05:15:29.282Z,11.00
2023-01-27T05:17:56.191Z,10.35
2023-01-27T05:20:22.943Z,11.20
2023-01-27T05:22:51.327Z,10.98
2023-01-27T05:25:18.027Z,12.50
2023-01-27T05:27:44.962Z,11.18
2023-01-27T05:30:12.218Z,10.93
2023-01-27T05:32:38.828Z,11.05
2023-01-27T05:35:05.999Z,11.07
2023-01-27T05:37:32.726Z,11.13
2023-01-27T05:39:59.471Z,11.13
2023-01-27T05:42:26.148Z,10.85
2023-01-27T05:44:52.772Z,11.05
2023-01-27T05:47:19.387Z,10.68
2023-01-27T05:49:45.989Z,10.63
2023-01-27T05:52:12.596Z,10.65
2023-01-27T05:54:39.202Z,10.30
2023-01-27T05:57:05.827Z,10.98
2023-01-27T05:59:32.564Z,10.73
2023-01-27T06:01:59.296Z,11.93
2023-01-27T06:04:26.598Z,10.38
2023-01-27T06:06:53.217Z,10.15
2023-01-27T06:09:19.891Z,10.45
2023-01-27T06:11:47.325Z,11.05
2023-01-27T06:14:14.653Z,9.70
2023-01-27T06:16:41.410Z,11.00
2023-01-27T06:19:08.305Z,9.30
2023-01-27T06:21:34.954Z,10.15
2023-01-27T06:24:01.652Z,11.30
2023-01-27T06:26:28.336Z,10.90
2023-01-27T06:28:56.905Z,10.95
2023-01-27T06:31:23.781Z,10.68
2023-01-27T06:33:51.146Z,8.85
2023-01-27T06:36:19.764Z,10.27
2023-01-27T06:38:46.815Z,9.70
2023-01-27T06:41:13.611Z,10.35
2023-01-27T06:43:40.254Z,9.95
2023-01-27T06:46:07.123Z,9.68
2023-01-27T06:48:34.150Z,10.27
2023-01-27T06:51:00.791Z,9.93
2023-01-27T06:53:27.501Z,10.15
2023-01-27T06:55:59.429Z,10.63
2023-01-27T06:58:26.253Z,10.73
2023-01-27T07:00:52.889Z,9.55
2023-01-27T07:03:19.634Z,9.70
2023-01-27T07:05:46.264Z,10.13
2023-01-27T07:08:12.905Z,9.95
2023-01-27T07:10:39.553Z,10.77
2023-01-27T07:13:10.641Z,9.70
2023-01-27T07:15:37.741Z,9.60
2023-01-27T07:18:05.131Z,10.50
2023-01-27T07:20:32.599Z,9.70
2023-01-27T07:23:01.176Z,12.13
2023-01-27T07:25:29.019Z,10.02
2023-01-27T07:27:58.008Z,9.80
2023-01-27T07:30:25.265Z,11.35
2023-01-27T07:32:52.375Z,9.70
2023-01-27T07:35:19.073Z,9.52
2023-01-27T07:37:45.714Z,11.00
2023-01-27T07:40:16.142Z,10.05
2023-01-27T07:42:43.043Z,10.43
2023-01-27T07:45:10.002Z,9.50
2023-01-27T07:47:36.691Z,10.02
2023-01-27T07:50:03.571Z,10.10
2023-01-27T07:52:30.289Z,10.00
2023-01-27T07:54:56.961Z,9.35
2023-01-27T07:57:23.640Z,9.65
2023-01-27T07:59:55.211Z,9.10
2023-01-27T08:02:22.796Z,9.13
2023-01-27T08:04:53.767Z,9.40
2023-01-27T08:07:21.094Z,9.40
2023-01-27T08:09:47.772Z,9.15
2023-01-27T08:12:14.588Z,9.10
2023-01-27T08:14:41.275Z,8.63
2023-01-27T08:17:07.909Z,9.43
2023-01-27T08:19:34.540Z,10.32
2023-01-27T08:22:01.231Z,9.80
2023-01-27T08:24:27.955Z,10.27
2023-01-27T08:26:54.856Z,10.45
2023-01-27T08:29:21.500Z,9.48
2023-01-27T08:31:48.199Z,9.43
2023-01-27T08:34:15.073Z,10.00
2023-01-27T08:36:43.466Z,10.70
2023-01-27T08:39:11.094Z,10.25
2023-01-27T08:41:38.489Z,10.18
2023-01-27T08:44:05.653Z,10.50
2023-01-27T08:46:32.370Z,10.70
2023-01-27T08:48:58.972Z,11.77
2023-01-27T08:51:25.609Z,11.07
2023-01-27T08:53:52.209Z,10.10
2023-01-27T08:56:18.921Z,12.85
2023-01-27T08:58:48.314Z,10.20
2023-01-27T09:01:16.333Z,11.15
2023-01-27T09:03:43.006Z,10.20
2023-01-27T09:06:11.357Z,10.60
2023-01-27T09:08:39.271Z,10.73
2023-01-27T09:11:17.522Z,10.65
2023-01-27T09:13:44.263Z,9.73
2023-01-27T09:16:10.963Z,10.00
2023-01-27T09:18:37.836Z,10.80
2023-01-27T09:21:05.903Z,11.45
2023-01-27T09:23:34.049Z,10.50
2023-01-27T09:26:00.805Z,10.80
2023-01-27T09:28:27.622Z,10.70
2023-01-27T09:30:57.825Z,10.50
2023-01-27T09:33:25.931Z,10.18
2023-01-27T09:35:57.480Z,10.40
2023-01-27T09:38:27.041Z,10.85
2023-01-27T09:41:20.604Z,11.00
2023-01-27T09:43:58.774Z,9.43
2023-01-27T09:46:39.323Z,9.05
2023-01-27T09:49:28.367Z,10.07
2023-01-27T09:52:02.121Z,9.45
2023-01-27T09:54:48.305Z,9.70
2023-01-27T09:57:27.023Z,9.27
2023-01-27T10:00:44.538Z,9.32
2023-01-27T10:03:30.555Z,8.93
2023-01-27T10:06:21.744Z,9.45
2023-01-27T10:08:56.985Z,9.75
2023-01-27T10:11:49.248Z,8.60
2023-01-27T10:14:58.594Z,9.48
2023-01-27T10:17:28.031Z,8.63
2023-01-27T10:20:14.768Z,8.70
2023-01-27T10:23:06.391Z,8.27
2023-01-27T10:25:53.479Z,8.13
2023-01-27T10:28:27.636Z,7.95
2023-01-27T10:31:19.706Z,8.25
2023-01-27T10:34:01.709Z,8.35
2023-01-27T10:36:31.967Z,8.10
2023-01-27T10:39:07.610Z,8.13
2023-01-27T10:41:56.704Z,7.60
2023-01-27T10:44:26.133Z,7.72
2023-01-27T10:47:25.431Z,8.18
2023-01-27T10:49:57.305Z,7.25
2023-01-27T10:52:46.403Z,7.90
2023-01-27T10:55:29.637Z,7.63
2023-01-27T10:58:00.262Z,7.63
2023-01-27T11:01:19.305Z,8.40
2023-01-27T11:03:49.403Z,7.20
2023-01-27T11:06:25.169Z,7.25
2023-01-27T11:08:56.441Z,7.65
2023-01-27T11:11:43.603Z,7.60
2023-01-27T11:14:25.108Z,7.15
2023-01-27T11:16:56.745Z,7.05
2023-01-27T11:19:30.564Z,7.60
2023-01-27T11:22:07.881Z,7.43
2023-01-27T11:24:47.111Z,7.40
2023-01-27T11:27:45.145Z,6.60
2023-01-27T11:30:26.555Z,7.25
2023-01-27T11:33:09.501Z,6.93
2023-01-27T11:35:36.210Z,6.85
2023-01-27T11:38:15.088Z,7.20
2023-01-27T11:40:45.404Z,7.07
2023-01-27T11:45:46.831Z,6.85
2023-01-27T11:48:16.993Z,7.30
2023-01-27T11:50:44.977Z,7.05
2023-01-27T11:53:16.755Z,7.28
2023-01-27T11:55:48.803Z,7.25
2023-01-27T11:58:31.975Z,7.40
2023-01-27T12:01:15.854Z,7.15
2023-01-27T12:04:01.138Z,7.00
2023-01-27T12:06:40.572Z,8.70
2023-01-27T12:09:07.206Z,6.75
2023-01-27T12:11:33.898Z,6.85
2023-01-27T12:14:03.195Z,6.70
2023-01-27T12:16:50.277Z,6.30
2023-01-27T12:19:27.859Z,7.10
2023-01-27T12:22:00.303Z,6.50
2023-01-27T12:24:34.564Z,6.47
2023-01-27T12:27:02.826Z,6.30
2023-01-27T12:29:40.637Z,6.20
2023-01-27T12:32:17.745Z,6.18
2023-01-27T12:34:51.568Z,5.85
2023-01-27T12:37:27.357Z,6.18
2023-01-27T12:40:16.383Z,6.05
2023-01-27T12:42:48.103Z,5.85
2023-01-27T12:45:22.860Z,5.78
2023-01-27T12:48:01.880Z,6.35
2023-01-27T12:50:31.574Z,6.18
2023-01-27T12:53:13.350Z,6.43
2023-01-27T12:55:46.835Z,5.90
2023-01-27T12:58:31.386Z,6.15
2023-01-27T13:01:00.083Z,5.90
2023-01-27T13:03:27.433Z,6.05
2023-01-27T13:05:56.957Z,7.07
2023-01-27T13:08:26.157Z,5.55
2023-01-27T13:10:57.449Z,5.82
2023-01-27T13:13:26.902Z,5.80
2023-01-27T13:16:17.257Z,5.32
2023-01-27T13:19:01.516Z,6.05
2023-01-27T13:21:35.421Z,6.18
2023-01-27T13:24:06.319Z,5.90
2023-01-27T13:26:37.285Z,5.85
2023-01-27T13:29:17.980Z,5.30
2023-01-27T13:32:14.116Z,5.53
2023-01-27T13:35:14.586Z,5.55
2023-01-27T13:38:06.392Z,5.90
2023-01-27T13:40:45.764Z,6.25
2023-01-27T13:43:32.595Z,6.20
2023-01-27T13:46:24.395Z,6.45
2023-01-27T13:48:55.114Z,6.13
2023-01-27T13:51:24.617Z,5.32
2023-01-27T13:54:06.742Z,5.60
2023-01-27T13:57:04.446Z,6.00
2023-01-27T13:59:52.278Z,5.20
2023-01-27T14:02:28.308Z,5.32
2023-01-27T14:05:18.466Z,5.50
2023-01-27T14:07:54.836Z,5.25
2023-01-27T14:10:35.642Z,4.97
2023-01-27T14:13:35.519Z,4.80
2023-01-27T14:16:13.026Z,5.05
2023-01-27T14:18:57.188Z,4.70
2023-01-27T14:21:55.596Z,4.78
2023-01-27T14:24:34.375Z,4.80
2023-01-27T14:27:05.367Z,4.85
2023-01-27T14:29:54.709Z,4.80
2023-01-27T14:32:39.145Z,5.10
2023-01-27T14:35:26.829Z,5.20
2023-01-27T14:38:10.591Z,5.05
2023-01-27T14:41:01.781Z,5.10
2023-01-27T14:43:43.140Z,4.93
2023-01-27T14:46:28.444Z,5.35
2023-01-27T14:49:36.297Z,4.85
2023-01-27T14:52:11.703Z,5.30
2023-01-27T14:55:10.875Z,5.60
2023-01-27T14:58:08.962Z,5.63
2023-01-27T15:00:55.848Z,5.50
2023-01-27T15:03:41.102Z,5.10
2023-01-27T15:06:33.982Z,5.18
2023-01-27T15:09:00.595Z,5.00
2023-01-27T15:11:43.718Z,5.00
2023-01-27T15:14:43.434Z,4.90
2023-01-27T15:17:18.985Z,5.38
2023-01-27T15:19:58.206Z,4.70
2023-01-27T15:22:31.311Z,5.20
2023-01-27T15:25:19.693Z,4.97
2023-01-27T15:27:48.427Z,4.90
2023-01-27T15:30:21.708Z,4.85
2023-01-27T15:32:48.351Z,4.93
2023-01-27T15:35:36.686Z,4.60
2023-01-27T15:38:08.120Z,5.05
2023-01-27T15:40:59.057Z,4.80
2023-01-27T15:43:29.696Z,5.13
2023-01-27T15:45:58.149Z,4.75
2023-01-27T15:48:32.640Z,4.95
2023-01-27T15:51:07.098Z,5.45
2023-01-27T15:53:39.098Z,4.90
2023-01-27T15:56:06.450Z,4.80
2023-01-27T15:58:39.621Z,5.38
2023-01-27T16:01:22.642Z,4.90
2023-01-27T16:03:50.604Z,4.72
2023-01-27T16:06:23.680Z,4.85
2023-01-27T16:09:03.810Z,4.95
2023-01-27T16:11:39.408Z,5.05
2023-01-27T16:14:12.211Z,5.18
2023-01-27T16:16:40.505Z,4.90
2023-01-27T16:19:11.093Z,5.20
2023-01-27T16:21:53.447Z,5.07
2023-01-27T16:24:25.390Z,5.18
2023-01-27T16:26:59.641Z,5.00
2023-01-27T16:29:38.500Z,5.10
2023-01-27T16:32:16.956Z,5.80
2023-01-27T16:34:53.212Z,5.13
2023-01-27T16:37:27.295Z,4.90
2023-01-27T16:39:59.310Z,5.20
2023-01-27T16:42:44.464Z,5.07
2023-01-27T16:45:30.004Z,4.80
2023-01-27T16:48:12.768Z,5.22
2023-01-27T16:50:41.865Z,5.00
2023-01-27T16:53:28.833Z,5.25
2023-01-27T16:56:04.941Z,5.45
2023-01-27T16:58:45.602Z,6.07
2023-01-27T17:01:45.566Z,5.30
2023-01-27T17:04:24.948Z,5.70
2023-01-27T17:06:56.002Z,5.40
2023-01-27T17:09:28.240Z,5.15
2023-01-27T17:11:55.609Z,5.38
2023-01-27T17:14:38.206Z,5.25
2023-01-27T17:17:14.963Z,5.82
2023-01-27T17:19:47.312Z,5.28
2023-01-27T17:22:24.286Z,5.10
2023-01-27T17:24:54.018Z,5.60
2023-01-27T17:27:27.826Z,5.47
2023-01-27T17:30:01.565Z,5.35
2023-01-27T17:32:34.073Z,5.55
2023-01-27T17:35:08.509Z,5.63
2023-01-27T17:37:43.149Z,5.80
2023-01-27T17:40:21.574Z,5.65
2023-01-27T17:42:49.250Z,5.63
2023-01-27T17:45:31.976Z,5.65
2023-01-27T17:47:59.694Z,5.60
2023-01-27T17:50:34.260Z,5.80
2023-01-27T17:53:01.086Z,5.63
2023-01-27T17:55:30.944Z,5.50
2023-01-27T17:58:04.519Z,5.70
2023-01-27T18:00:35.410Z,5.47
2023-01-27T18:03:24.796Z,5.75
2023-01-27T18:05:54.463Z,5.53
2023-01-27T18:08:23.501Z,5.40
2023-01-27T18:10:50.974Z,5.43
2023-01-27T18:13:20.370Z,5.70
2023-01-27T18:16:14.096Z,5.95
2023-01-27T18:18:40.767Z,5.60
2023-01-27T18:21:10.223Z,5.70
2023-01-27T18:23:46.450Z,6.28
2023-01-27T18:26:21.729Z,5.90
2023-01-27T18:28:57.833Z,5.75
2023-01-27T18:31:34.303Z,6.03
2023-01-27T18:34:04.129Z,6.07
2023-01-27T18:36:36.455Z,6.30
2023-01-27T18:39:43.360Z,6.15
2023-01-27T18:42:15.232Z,5.90
2023-01-27T18:44:42.212Z,6.05
2023-01-27T18:47:17.864Z,6.00
2023-01-27T18:49:58.999Z,6.35
2023-01-27T18:52:26.220Z,6.03
2023-01-27T18:55:01.830Z,6.15
2023-01-27T18:57:28.700Z,5.95
2023-01-27T18:59:55.294Z,5.93
2023-01-27T19:02:22.254Z,6.90
2023-01-27T19:04:49.000Z,6.50
2023-01-27T19:07:17.923Z,5.93
2023-01-27T19:09:45.936Z,6.10
2023-01-27T19:12:12.876Z,6.25
2023-01-27T19:14:41.728Z,6.25
2023-01-27T19:17:17.282Z,6.35
2023-01-27T19:19:44.075Z,6.07
2023-01-27T19:22:16.108Z,6.25
2023-01-27T19:24:45.441Z,6.40
2023-01-27T19:27:14.017Z,6.57
2023-01-27T19:29:41.112Z,6.60
2023-01-27T19:32:11.708Z,6.78
2023-01-27T19:34:38.376Z,6.50
2023-01-27T19:37:05.406Z,6.10
2023-01-27T19:39:32.006Z,6.75
2023-01-27T19:41:58.644Z,6.40
2023-01-27T19:44:25.393Z,6.13
2023-01-27T19:46:52.036Z,6.45
2023-01-27T19:49:19.647Z,6.72
2023-01-27T19:51:46.305Z,6.68
2023-01-27T19:54:12.969Z,6.05
2023-01-27T19:56:39.603Z,5.75
2023-01-27T19:59:06.389Z,6.38
2023-01-27T20:01:33.064Z,5.90
2023-01-27T20:03:59.804Z,6.30
2023-01-27T20:06:28.728Z,6.07
2023-01-27T20:08:59.405Z,6.47
2023-01-27T20:11:36.220Z,6.00
2023-01-27T20:14:13.593Z,6.28
2023-01-27T20:16:40.825Z,6.50
2023-01-27T20:19:07.721Z,5.55
2023-01-27T20:21:34.509Z,6.30
2023-01-27T20:24:02.022Z,6.32
2023-01-27T20:26:31.114Z,6.45
2023-01-27T20:28:58.141Z,5.85
2023-01-27T20:31:24.957Z,6.40
2023-01-27T20:33:52.025Z,6.40
2023-01-27T20:36:21.397Z,6.20
2023-01-27T20:38:48.544Z,6.40
2023-01-27T20:41:20.439Z,6.80
2023-01-27T20:43:47.108Z,6.28
2023-01-27T20:46:16.593Z,6.30
2023-01-27T20:48:44.063Z,6.15
2023-01-27T20:51:13.293Z,6.10
2023-01-27T20:53:47.681Z,6.00
2023-01-27T20:56:17.142Z,6.35
2023-01-27T20:58:44.590Z,6.45
2023-01-27T21:01:20.057Z,6.00
2023-01-27T21:03:47.249Z,6.85
2023-01-27T21:06:15.741Z,6.10
2023-01-27T21:08:47.507Z,5.85
2023-01-27T21:11:15.958Z,6.13
2023-01-27T21:13:42.744Z,6.82
2023-01-27T21:16:10.300Z,6.10
2023-01-27T21:18:37.337Z,6.70
2023-01-27T21:21:04.536Z,6.53
2023-01-27T21:23:33.267Z,6.00
2023-01-27T21:26:11.561Z,6.25
2023-01-27T21:28:38.195Z,6.07
2023-01-27T21:31:16.182Z,6.43
2023-01-27T21:33:45.650Z,6.40
2023-01-27T21:36:12.390Z,6.30
2023-01-27T21:38:39.638Z,6.50
2023-01-27T21:41:35.872Z,5.95
2023-01-27T21:44:21.332Z,6.13
2023-01-27T21:46:48.057Z,6.35
2023-01-27T21:49:15.271Z,6.80
2023-01-27T21:51:42.846Z,6.55
2023-01-27T21:54:09.900Z,6.30
2023-01-27T21:56:36.520Z,6.25
2023-01-27T21:59:03.229Z,5.90
2023-01-27T22:01:31.660Z,6.10
2023-01-27T22:03:58.538Z,5.65
2023-01-27T22:06:26.014Z,6.07
2023-01-27T22:08:52.738Z,6.53
2023-01-27T22:11:19.465Z,6.00
2023-01-27T22:13:46.219Z,6.10
2023-01-27T22:16:15.064Z,5.97
2023-01-27T22:18:42.526Z,6.13
2023-01-27T22:21:09.512Z,6.10
2023-01-27T22:23:36.137Z,5.93
2023-01-27T22:26:05.691Z,6.70
2023-01-27T22:28:32.414Z,5.95
2023-01-27T22:31:02.544Z,6.40
2023-01-27T22:33:29.318Z,5.80
2023-01-27T22:36:01.303Z,6.25
2023-01-27T22:38:28.201Z,6.05
2023-01-27T22:41:00.929Z,5.75
2023-01-27T22:43:27.589Z,5.90
2023-01-27T22:45:54.305Z,6.10
2023-01-27T22:48:21.031Z,6.03
2023-01-27T22:50:47.673Z,6.25
2023-01-27T22:53:14.302Z,6.00
2023-01-27T22:55:40.965Z,6.45
2023-01-27T22:58:08.556Z,6.00
2023-01-27T23:00:35.641Z,6.10
2023-01-27T23:03:02.368Z,6.05
2023-01-27T23:05:29.080Z,6.10
2023-01-27T23:07:55.771Z,5.95
2023-01-27T23:10:23.637Z,6.00
2023-01-27T23:12:50.283Z,6.13
2023-01-27T23:15:17.407Z,6.25
2023-01-27T23:17:44.217Z,5.95
2023-01-27T23:20:11.529Z,6.00
2023-01-27T23:22:38.188Z,6.57
2023-01-27T23:25:05.521Z,6.25
2023-01-27T23:27:32.612Z,6.35
2023-01-27T23:29:59.236Z,6.80
2023-01-27T23:32:25.862Z,6.40
2023-01-27T23:34:52.489Z,5.88
2023-01-27T23:37:19.138Z,5.93
2023-01-27T23:39:48.659Z,5.90
2023-01-27T23:42:16.821Z,5.93
2023-01-27T23:44:43.690Z,6.07
2023-01-27T23:47:11.434Z,6.25
2023-01-27T23:49:38.081Z,6.50
2023-01-27T23:52:04.999Z,6.30
2023-01-27T23:54:32.762Z,6.85
2023-01-27T23:56:59.907Z,6.55
2023-01-27T23:59:26.520Z,6.40
